sensor_id;sensor_type;location;lat;lon;timestamp;temperature;humidity
24730;DHT22;12832;52.392;13.066;2023-05-16T00:00:58;26.50;35.90
24730;DHT22;12832;52.392;13.066;2023-05-16T00:03:26;26.50;35.90
24730;DHT22;12832;52.392;13.066;2023-05-16T00:05:52;26.50;35.90
24730;DHT22;12832;52.392;13.066;2023-05-16T00:08:18;26.50;35.90
24730;DHT22;12832;52.392;13.066;2023-05-16T00:10:44;26.50;35.90
24730;DHT22;12832;52.392;13.066;2023-05-16T00:13:11;26.50;35.90
24730;DHT22;12832;52.392;13.066;2023-05-16T00:15:38;26.50;35.90
24730;DHT22;12832;52.392;13.066;2023-05-16T00:18:04;26.50;35.90
24730;DHT22;12832;52.392;13.066;2023-05-16T00:20:31;26.50;35.90
24730;DHT22;12832;52.392;13.066;2023-05-16T00:22:57;26.50;35.90
24730;DHT22;12832;52.392;13.066;2023-05-16T00:25:26;26.50;35.90
24730;DHT22;12832;52.392;13.066;2023-05-16T00:27:53;26.50;35.90
24730;DHT22;12832;52.392;13.066;2023-05-16T00:30:19;26.50;35.90
24730;DHT22;12832;52.392;13.066;2023-05-16T00:32:45;26.50;35.90
24730;DHT22;12832;52.392;13.066;2023-05-16T00:35:12;26.50;35.90
24730;DHT22;12832;52.392;13.066;2023-05-16T00:37:38;26.50;35.90
24730;DHT22;12832;52.392;13.066;2023-05-16T00:40:05;26.50;35.90
24730;DHT22;12832;52.392;13.066;2023-05-16T00:42:31;26.50;35.90
24730;DHT22;12832;52.392;13.066;2023-05-16T00:44:57;26.50;35.90
24730;DHT22;12832;52.392;13.066;2023-05-16T00:47:23;26.50;35.90
24730;DHT22;12832;52.392;13.066;2023-05-16T00:49:49;26.50;35.90
24730;DHT22;12832;52.392;13.066;2023-05-16T00:52:16;26.50;35.90
24730;DHT22;12832;52.392;13.066;2023-05-16T00:54:42;26.50;35.90
24730;DHT22;12832;52.392;13.066;2023-05-16T00:57:08;26.50;35.90
24730;DHT22;12832;52.392;13.066;2023-05-16T00:59:35;26.50;35.90
24730;DHT22;12832;52.392;13.066;2023-05-16T01:02:01;26.50;36.10
24730;DHT22;12832;52.392;13.066;2023-05-16T01:04:28;26.50;35.90
24730;DHT22;12832;52.392;13.066;2023-05-16T01:06:55;26.50;35.90
24730;DHT22;12832;52.392;13.066;2023-05-16T01:09:22;26.50;35.90
24730;DHT22;12832;52.392;13.066;2023-05-16T01:11:53;26.50;35.90
24730;DHT22;12832;52.392;13.066;2023-05-16T01:14:48;26.50;35.90
24730;DHT22;12832;52.392;13.066;2023-05-16T01:17:26;26.50;35.90
24730;DHT22;12832;52.392;13.066;2023-05-16T01:22:47;26.50;35.90
24730;DHT22;12832;52.392;13.066;2023-05-16T01:28:22;26.50;35.90
24730;DHT22;12832;52.392;13.066;2023-05-16T01:30:50;26.50;35.90
24730;DHT22;12832;52.392;13.066;2023-05-16T01:33:16;26.50;35.90
24730;DHT22;12832;52.392;13.066;2023-05-16T01:35:54;26.50;35.90
24730;DHT22;12832;52.392;13.066;2023-05-16T01:38:25;26.50;35.90
24730;DHT22;12832;52.392;13.066;2023-05-16T01:41:03;26.50;35.90
24730;DHT22;12832;52.392;13.066;2023-05-16T01:43:36;26.50;35.90
24730;DHT22;12832;52.392;13.066;2023-05-16T01:46:18;26.50;35.90
24730;DHT22;12832;52.392;13.066;2023-05-16T01:48:53;26.50;35.90
24730;DHT22;12832;52.392;13.066;2023-05-16T01:51:27;26.50;35.90
24730;DHT22;12832;52.392;13.066;2023-05-16T01:53:59;26.50;35.90
24730;DHT22;12832;52.392;13.066;2023-05-16T01:56:27;26.50;35.90
24730;DHT22;12832;52.392;13.066;2023-05-16T01:58:54;26.50;35.90
24730;DHT22;12832;52.392;13.066;2023-05-16T02:01:22;26.50;35.90
24730;DHT22;12832;52.392;13.066;2023-05-16T02:03:48;26.50;35.90
24730;DHT22;12832;52.392;13.066;2023-05-16T02:06:14;26.50;35.90
24730;DHT22;12832;52.392;13.066;2023-05-16T02:08:40;26.50;36.00
24730;DHT22;12832;52.392;13.066;2023-05-16T02:11:07;26.60;36.10
24730;DHT22;12832;52.392;13.066;2023-05-16T02:13:33;26.60;36.10
24730;DHT22;12832;52.392;13.066;2023-05-16T02:15:59;26.60;36.10
24730;DHT22;12832;52.392;13.066;2023-05-16T02:18:25;26.60;36.10
24730;DHT22;12832;52.392;13.066;2023-05-16T02:20:53;26.60;36.30
24730;DHT22;12832;52.392;13.066;2023-05-16T02:23:19;26.50;36.30
24730;DHT22;12832;52.392;13.066;2023-05-16T02:25:45;26.50;36.30
24730;DHT22;12832;52.392;13.066;2023-05-16T02:28:11;26.60;36.50
24730;DHT22;12832;52.392;13.066;2023-05-16T02:30:37;26.50;36.30
24730;DHT22;12832;52.392;13.066;2023-05-16T02:33:04;26.50;36.40
24730;DHT22;12832;52.392;13.066;2023-05-16T02:35:30;26.50;36.40
24730;DHT22;12832;52.392;13.066;2023-05-16T02:37:56;26.50;36.50
24730;DHT22;12832;52.392;13.066;2023-05-16T02:40:23;26.50;36.40
24730;DHT22;12832;52.392;13.066;2023-05-16T02:42:49;26.50;36.60
24730;DHT22;12832;52.392;13.066;2023-05-16T02:45:15;26.50;36.50
24730;DHT22;12832;52.392;13.066;2023-05-16T02:47:41;26.50;36.50
24730;DHT22;12832;52.392;13.066;2023-05-16T02:50:08;26.50;36.60
24730;DHT22;12832;52.392;13.066;2023-05-16T02:52:34;26.50;36.60
24730;DHT22;12832;52.392;13.066;2023-05-16T02:55:00;26.50;36.60
24730;DHT22;12832;52.392;13.066;2023-05-16T02:57:46;26.50;36.60
24730;DHT22;12832;52.392;13.066;2023-05-16T03:00:13;26.50;36.60
24730;DHT22;12832;52.392;13.066;2023-05-16T03:02:42;26.50;36.60
24730;DHT22;12832;52.392;13.066;2023-05-16T03:05:08;26.50;36.50
24730;DHT22;12832;52.392;13.066;2023-05-16T03:07:36;26.50;36.60
24730;DHT22;12832;52.392;13.066;2023-05-16T03:10:02;26.50;36.60
24730;DHT22;12832;52.392;13.066;2023-05-16T03:12:29;26.50;36.60
24730;DHT22;12832;52.392;13.066;2023-05-16T03:14:55;26.50;36.60
24730;DHT22;12832;52.392;13.066;2023-05-16T03:17:21;26.50;36.60
24730;DHT22;12832;52.392;13.066;2023-05-16T03:19:47;26.50;36.60
24730;DHT22;12832;52.392;13.066;2023-05-16T03:22:14;26.50;36.70
24730;DHT22;12832;52.392;13.066;2023-05-16T03:24:40;26.50;36.70
24730;DHT22;12832;52.392;13.066;2023-05-16T03:27:06;26.50;36.70
24730;DHT22;12832;52.392;13.066;2023-05-16T03:29:33;26.50;36.70
24730;DHT22;12832;52.392;13.066;2023-05-16T03:32:00;26.50;36.70
24730;DHT22;12832;52.392;13.066;2023-05-16T03:34:26;26.50;36.70
24730;DHT22;12832;52.392;13.066;2023-05-16T03:36:53;26.50;36.70
24730;DHT22;12832;52.392;13.066;2023-05-16T03:39:19;26.50;36.70
24730;DHT22;12832;52.392;13.066;2023-05-16T03:41:45;26.50;36.70
24730;DHT22;12832;52.392;13.066;2023-05-16T03:44:12;26.50;36.70
24730;DHT22;12832;52.392;13.066;2023-05-16T03:46:38;26.50;36.70
24730;DHT22;12832;52.392;13.066;2023-05-16T03:49:04;26.50;36.70
24730;DHT22;12832;52.392;13.066;2023-05-16T03:51:30;26.50;36.70
24730;DHT22;12832;52.392;13.066;2023-05-16T03:53:57;26.50;36.70
24730;DHT22;12832;52.392;13.066;2023-05-16T03:56:23;26.50;36.60
24730;DHT22;12832;52.392;13.066;2023-05-16T03:58:49;26.50;36.70
24730;DHT22;12832;52.392;13.066;2023-05-16T04:01:16;26.50;36.70
24730;DHT22;12832;52.392;13.066;2023-05-16T04:03:43;26.50;36.70
24730;DHT22;12832;52.392;13.066;2023-05-16T04:06:09;26.50;36.70
24730;DHT22;12832;52.392;13.066;2023-05-16T04:08:35;26.40;36.60
24730;DHT22;12832;52.392;13.066;2023-05-16T04:11:04;26.50;36.80
24730;DHT22;12832;52.392;13.066;2023-05-16T04:13:30;26.50;36.80
24730;DHT22;12832;52.392;13.066;2023-05-16T04:15:56;26.50;36.70
24730;DHT22;12832;52.392;13.066;2023-05-16T04:18:22;26.50;36.70
24730;DHT22;12832;52.392;13.066;2023-05-16T04:20:49;26.50;36.70
24730;DHT22;12832;52.392;13.066;2023-05-16T04:23:15;26.50;36.70
24730;DHT22;12832;52.392;13.066;2023-05-16T04:25:41;26.50;36.60
24730;DHT22;12832;52.392;13.066;2023-05-16T04:28:07;26.50;36.60
24730;DHT22;12832;52.392;13.066;2023-05-16T04:30:34;26.50;36.60
24730;DHT22;12832;52.392;13.066;2023-05-16T04:33:01;26.50;36.50
24730;DHT22;12832;52.392;13.066;2023-05-16T04:35:27;26.50;36.60
24730;DHT22;12832;52.392;13.066;2023-05-16T04:37:54;26.50;36.60
24730;DHT22;12832;52.392;13.066;2023-05-16T04:40:20;26.50;36.60
24730;DHT22;12832;52.392;13.066;2023-05-16T04:42:47;26.50;36.80
24730;DHT22;12832;52.392;13.066;2023-05-16T04:45:13;26.50;36.80
24730;DHT22;12832;52.392;13.066;2023-05-16T04:47:39;26.50;36.90
24730;DHT22;12832;52.392;13.066;2023-05-16T04:50:06;26.50;37.00
24730;DHT22;12832;52.392;13.066;2023-05-16T04:52:34;26.50;37.00
24730;DHT22;12832;52.392;13.066;2023-05-16T04:55:00;26.50;37.20
24730;DHT22;12832;52.392;13.066;2023-05-16T04:57:26;26.50;37.20
24730;DHT22;12832;52.392;13.066;2023-05-16T04:59:53;26.50;37.30
24730;DHT22;12832;52.392;13.066;2023-05-16T05:02:19;26.40;37.40
24730;DHT22;12832;52.392;13.066;2023-05-16T05:04:45;26.40;36.80
24730;DHT22;12832;52.392;13.066;2023-05-16T05:07:11;26.40;36.80
24730;DHT22;12832;52.392;13.066;2023-05-16T05:09:39;26.30;36.80
24730;DHT22;12832;52.392;13.066;2023-05-16T05:12:06;26.30;36.90
24730;DHT22;12832;52.392;13.066;2023-05-16T05:14:32;26.30;37.00
24730;DHT22;12832;52.392;13.066;2023-05-16T05:16:59;26.30;37.00
24730;DHT22;12832;52.392;13.066;2023-05-16T05:19:25;26.20;37.00
24730;DHT22;12832;52.392;13.066;2023-05-16T05:21:51;26.20;37.10
24730;DHT22;12832;52.392;13.066;2023-05-16T05:24:17;26.10;37.10
24730;DHT22;12832;52.392;13.066;2023-05-16T05:26:44;26.10;37.20
24730;DHT22;12832;52.392;13.066;2023-05-16T05:29:10;26.10;37.10
24730;DHT22;12832;52.392;13.066;2023-05-16T05:31:36;26.10;37.20
24730;DHT22;12832;52.392;13.066;2023-05-16T05:34:03;26.00;37.10
24730;DHT22;12832;52.392;13.066;2023-05-16T05:36:29;26.00;37.20
24730;DHT22;12832;52.392;13.066;2023-05-16T05:38:56;26.00;37.20
24730;DHT22;12832;52.392;13.066;2023-05-16T05:41:22;26.00;37.20
24730;DHT22;12832;52.392;13.066;2023-05-16T05:43:48;26.00;37.30
24730;DHT22;12832;52.392;13.066;2023-05-16T05:46:15;26.00;37.40
24730;DHT22;12832;52.392;13.066;2023-05-16T05:48:42;26.00;37.40
24730;DHT22;12832;52.392;13.066;2023-05-16T05:51:08;26.00;37.40
24730;DHT22;12832;52.392;13.066;2023-05-16T05:53:34;25.90;37.40
24730;DHT22;12832;52.392;13.066;2023-05-16T05:56:00;25.90;37.40
24730;DHT22;12832;52.392;13.066;2023-05-16T05:58:27;25.90;38.00
24730;DHT22;12832;52.392;13.066;2023-05-16T06:00:53;25.90;37.50
24730;DHT22;12832;52.392;13.066;2023-05-16T06:03:19;25.90;37.40
24730;DHT22;12832;52.392;13.066;2023-05-16T06:05:46;25.90;37.50
24730;DHT22;12832;52.392;13.066;2023-05-16T06:08:13;25.90;37.40
24730;DHT22;12832;52.392;13.066;2023-05-16T06:10:39;25.90;37.50
24730;DHT22;12832;52.392;13.066;2023-05-16T06:13:05;25.90;37.50
24730;DHT22;12832;52.392;13.066;2023-05-16T06:15:31;25.90;37.50
24730;DHT22;12832;52.392;13.066;2023-05-16T06:17:57;25.90;37.50
24730;DHT22;12832;52.392;13.066;2023-05-16T06:20:24;25.90;37.50
24730;DHT22;12832;52.392;13.066;2023-05-16T06:22:50;25.80;37.40
24730;DHT22;12832;52.392;13.066;2023-05-16T06:25:16;25.90;37.50
24730;DHT22;12832;52.392;13.066;2023-05-16T06:27:42;25.90;37.60
24730;DHT22;12832;52.392;13.066;2023-05-16T06:30:09;25.80;37.60
24730;DHT22;12832;52.392;13.066;2023-05-16T06:32:35;25.80;37.50
24730;DHT22;12832;52.392;13.066;2023-05-16T06:35:01;25.90;37.70
24730;DHT22;12832;52.392;13.066;2023-05-16T06:37:28;25.80;37.60
24730;DHT22;12832;52.392;13.066;2023-05-16T06:39:54;25.80;37.70
24730;DHT22;12832;52.392;13.066;2023-05-16T06:42:21;25.80;37.70
24730;DHT22;12832;52.392;13.066;2023-05-16T06:44:47;25.80;37.60
24730;DHT22;12832;52.392;13.066;2023-05-16T06:47:14;25.80;37.60
24730;DHT22;12832;52.392;13.066;2023-05-16T06:49:41;25.80;37.60
24730;DHT22;12832;52.392;13.066;2023-05-16T06:52:07;25.80;37.60
24730;DHT22;12832;52.392;13.066;2023-05-16T06:54:33;25.80;37.60
24730;DHT22;12832;52.392;13.066;2023-05-16T06:57:00;25.80;37.60
24730;DHT22;12832;52.392;13.066;2023-05-16T06:59:27;25.80;37.60
24730;DHT22;12832;52.392;13.066;2023-05-16T07:01:53;25.80;37.50
24730;DHT22;12832;52.392;13.066;2023-05-16T07:04:20;25.80;37.50
24730;DHT22;12832;52.392;13.066;2023-05-16T07:06:46;25.80;37.50
24730;DHT22;12832;52.392;13.066;2023-05-16T07:09:12;25.80;37.60
24730;DHT22;12832;52.392;13.066;2023-05-16T07:11:39;25.80;37.60
24730;DHT22;12832;52.392;13.066;2023-05-16T07:14:05;25.80;38.20
24730;DHT22;12832;52.392;13.066;2023-05-16T07:16:31;25.80;37.60
24730;DHT22;12832;52.392;13.066;2023-05-16T07:18:57;25.90;37.80
24730;DHT22;12832;52.392;13.066;2023-05-16T07:21:24;25.80;37.80
24730;DHT22;12832;52.392;13.066;2023-05-16T07:23:50;25.80;37.80
24730;DHT22;12832;52.392;13.066;2023-05-16T07:26:17;25.80;37.70
24730;DHT22;12832;52.392;13.066;2023-05-16T07:28:43;25.80;37.70
24730;DHT22;12832;52.392;13.066;2023-05-16T07:31:09;25.80;37.80
24730;DHT22;12832;52.392;13.066;2023-05-16T07:33:36;25.80;37.70
24730;DHT22;12832;52.392;13.066;2023-05-16T07:36:02;25.80;37.80
24730;DHT22;12832;52.392;13.066;2023-05-16T07:38:42;25.80;37.80
24730;DHT22;12832;52.392;13.066;2023-05-16T07:41:09;25.80;37.80
24730;DHT22;12832;52.392;13.066;2023-05-16T07:43:35;25.80;37.70
24730;DHT22;12832;52.392;13.066;2023-05-16T07:46:02;25.80;37.80
24730;DHT22;12832;52.392;13.066;2023-05-16T07:48:28;25.80;37.70
24730;DHT22;12832;52.392;13.066;2023-05-16T07:50:55;25.80;37.70
24730;DHT22;12832;52.392;13.066;2023-05-16T07:53:21;25.80;37.80
24730;DHT22;12832;52.392;13.066;2023-05-16T07:55:48;25.80;37.80
24730;DHT22;12832;52.392;13.066;2023-05-16T07:58:15;25.80;37.70
24730;DHT22;12832;52.392;13.066;2023-05-16T08:00:41;25.80;37.70
24730;DHT22;12832;52.392;13.066;2023-05-16T08:03:07;25.70;37.60
24730;DHT22;12832;52.392;13.066;2023-05-16T08:05:34;25.70;37.50
24730;DHT22;12832;52.392;13.066;2023-05-16T08:08:00;25.70;37.50
24730;DHT22;12832;52.392;13.066;2023-05-16T08:10:26;25.80;37.50
24730;DHT22;12832;52.392;13.066;2023-05-16T08:12:52;25.70;37.50
24730;DHT22;12832;52.392;13.066;2023-05-16T08:15:20;25.70;37.50
24730;DHT22;12832;52.392;13.066;2023-05-16T08:17:46;25.70;37.50
24730;DHT22;12832;52.392;13.066;2023-05-16T08:20:13;25.70;37.40
24730;DHT22;12832;52.392;13.066;2023-05-16T08:22:39;25.70;37.40
24730;DHT22;12832;52.392;13.066;2023-05-16T08:25:06;25.80;37.50
24730;DHT22;12832;52.392;13.066;2023-05-16T08:27:32;25.70;37.40
24730;DHT22;12832;52.392;13.066;2023-05-16T08:29:59;25.70;37.70
24730;DHT22;12832;52.392;13.066;2023-05-16T08:32:28;25.70;37.70
24730;DHT22;12832;52.392;13.066;2023-05-16T08:34:54;25.70;37.80
24730;DHT22;12832;52.392;13.066;2023-05-16T08:37:21;25.70;37.70
24730;DHT22;12832;52.392;13.066;2023-05-16T08:39:47;25.70;37.60
24730;DHT22;12832;52.392;13.066;2023-05-16T08:42:13;25.70;37.50
24730;DHT22;12832;52.392;13.066;2023-05-16T08:44:40;25.70;37.40
24730;DHT22;12832;52.392;13.066;2023-05-16T08:47:18;25.70;37.40
24730;DHT22;12832;52.392;13.066;2023-05-16T08:49:47;25.70;37.30
24730;DHT22;12832;52.392;13.066;2023-05-16T08:52:18;25.70;37.40
24730;DHT22;12832;52.392;13.066;2023-05-16T08:54:45;25.70;37.40
24730;DHT22;12832;52.392;13.066;2023-05-16T08:57:21;25.60;37.30
24730;DHT22;12832;52.392;13.066;2023-05-16T08:59:47;25.60;37.40
24730;DHT22;12832;52.392;13.066;2023-05-16T09:02:14;25.60;37.40
24730;DHT22;12832;52.392;13.066;2023-05-16T09:04:41;25.60;37.40
24730;DHT22;12832;52.392;13.066;2023-05-16T09:07:08;25.60;37.40
24730;DHT22;12832;52.392;13.066;2023-05-16T09:09:34;25.60;37.50
24730;DHT22;12832;52.392;13.066;2023-05-16T09:12:00;25.60;37.50
24730;DHT22;12832;52.392;13.066;2023-05-16T09:14:26;25.60;37.40
24730;DHT22;12832;52.392;13.066;2023-05-16T09:17:06;25.60;37.40
24730;DHT22;12832;52.392;13.066;2023-05-16T09:19:42;25.60;37.50
24730;DHT22;12832;52.392;13.066;2023-05-16T09:22:11;25.60;37.50
24730;DHT22;12832;52.392;13.066;2023-05-16T09:24:40;25.60;37.50
24730;DHT22;12832;52.392;13.066;2023-05-16T09:27:07;25.60;37.60
24730;DHT22;12832;52.392;13.066;2023-05-16T09:29:34;25.60;37.70
24730;DHT22;12832;52.392;13.066;2023-05-16T09:32:12;25.60;37.70
24730;DHT22;12832;52.392;13.066;2023-05-16T09:37:09;25.60;38.40
24730;DHT22;12832;52.392;13.066;2023-05-16T09:39:39;25.60;37.70
24730;DHT22;12832;52.392;13.066;2023-05-16T09:42:10;25.60;37.60
24730;DHT22;12832;52.392;13.066;2023-05-16T09:44:37;25.60;37.60
24730;DHT22;12832;52.392;13.066;2023-05-16T09:47:04;25.60;37.70
24730;DHT22;12832;52.392;13.066;2023-05-16T09:49:31;25.60;37.70
24730;DHT22;12832;52.392;13.066;2023-05-16T09:52:03;25.60;37.70
24730;DHT22;12832;52.392;13.066;2023-05-16T09:54:31;25.60;37.70
24730;DHT22;12832;52.392;13.066;2023-05-16T09:56:59;25.60;37.70
24730;DHT22;12832;52.392;13.066;2023-05-16T09:59:29;25.60;37.70
24730;DHT22;12832;52.392;13.066;2023-05-16T10:01:58;25.60;37.70
24730;DHT22;12832;52.392;13.066;2023-05-16T10:04:25;25.60;37.70
24730;DHT22;12832;52.392;13.066;2023-05-16T10:06:54;25.60;37.70
24730;DHT22;12832;52.392;13.066;2023-05-16T10:09:22;25.60;37.80
24730;DHT22;12832;52.392;13.066;2023-05-16T10:11:51;25.60;37.90
24730;DHT22;12832;52.392;13.066;2023-05-16T10:14:18;25.60;37.70
24730;DHT22;12832;52.392;13.066;2023-05-16T10:16:47;25.60;37.70
24730;DHT22;12832;52.392;13.066;2023-05-16T10:19:16;25.60;37.70
24730;DHT22;12832;52.392;13.066;2023-05-16T10:21:50;25.60;37.70
24730;DHT22;12832;52.392;13.066;2023-05-16T10:27:03;25.60;37.70
24730;DHT22;12832;52.392;13.066;2023-05-16T10:29:31;25.60;37.70
24730;DHT22;12832;52.392;13.066;2023-05-16T10:32:12;25.60;37.70
24730;DHT22;12832;52.392;13.066;2023-05-16T10:34:39;25.60;37.70
24730;DHT22;12832;52.392;13.066;2023-05-16T10:37:09;25.60;37.70
24730;DHT22;12832;52.392;13.066;2023-05-16T10:39:37;25.60;37.70
24730;DHT22;12832;52.392;13.066;2023-05-16T10:42:05;25.60;37.70
24730;DHT22;12832;52.392;13.066;2023-05-16T10:44:32;25.50;37.60
24730;DHT22;12832;52.392;13.066;2023-05-16T10:46:59;25.50;37.60
24730;DHT22;12832;52.392;13.066;2023-05-16T10:49:26;25.60;37.70
24730;DHT22;12832;52.392;13.066;2023-05-16T10:52:07;25.50;37.60
24730;DHT22;12832;52.392;13.066;2023-05-16T10:54:42;25.50;37.60
24730;DHT22;12832;52.392;13.066;2023-05-16T10:57:11;25.60;37.70
24730;DHT22;12832;52.392;13.066;2023-05-16T10:59:45;25.60;37.70
24730;DHT22;12832;52.392;13.066;2023-05-16T11:04:55;25.60;37.60
24730;DHT22;12832;52.392;13.066;2023-05-16T11:07:23;25.50;37.40
24730;DHT22;12832;52.392;13.066;2023-05-16T11:10:04;25.50;37.40
24730;DHT22;12832;52.392;13.066;2023-05-16T11:12:50;25.60;37.40
24730;DHT22;12832;52.392;13.066;2023-05-16T11:15:19;25.60;37.50
24730;DHT22;12832;52.392;13.066;2023-05-16T11:17:46;25.60;37.60
24730;DHT22;12832;52.392;13.066;2023-05-16T11:20:26;25.60;37.40
24730;DHT22;12832;52.392;13.066;2023-05-16T11:23:19;25.60;37.30
24730;DHT22;12832;52.392;13.066;2023-05-16T11:25:49;25.50;37.20
24730;DHT22;12832;52.392;13.066;2023-05-16T11:28:17;25.60;37.30
24730;DHT22;12832;52.392;13.066;2023-05-16T11:30:47;25.50;37.20
24730;DHT22;12832;52.392;13.066;2023-05-16T11:33:17;25.50;37.10
24730;DHT22;12832;52.392;13.066;2023-05-16T11:36:07;25.60;37.10
24730;DHT22;12832;52.392;13.066;2023-05-16T11:38:37;25.60;37.10
24730;DHT22;12832;52.392;13.066;2023-05-16T11:41:08;25.50;37.00
24730;DHT22;12832;52.392;13.066;2023-05-16T11:43:40;25.50;36.90
24730;DHT22;12832;52.392;13.066;2023-05-16T11:46:13;25.50;36.90
24730;DHT22;12832;52.392;13.066;2023-05-16T11:48:39;25.50;36.80
24730;DHT22;12832;52.392;13.066;2023-05-16T11:51:06;25.50;36.80
24730;DHT22;12832;52.392;13.066;2023-05-16T11:53:33;25.60;36.80
24730;DHT22;12832;52.392;13.066;2023-05-16T11:55:59;25.60;36.90
24730;DHT22;12832;52.392;13.066;2023-05-16T11:58:27;25.50;37.40
24730;DHT22;12832;52.392;13.066;2023-05-16T12:00:53;25.50;36.70
24730;DHT22;12832;52.392;13.066;2023-05-16T12:03:20;25.50;36.70
24730;DHT22;12832;52.392;13.066;2023-05-16T12:05:50;25.50;36.70
24730;DHT22;12832;52.392;13.066;2023-05-16T12:08:19;25.50;36.70
24730;DHT22;12832;52.392;13.066;2023-05-16T12:10:48;25.50;36.70
24730;DHT22;12832;52.392;13.066;2023-05-16T12:13:15;25.50;36.80
24730;DHT22;12832;52.392;13.066;2023-05-16T12:15:42;25.50;36.70
24730;DHT22;12832;52.392;13.066;2023-05-16T12:18:09;25.50;36.60
24730;DHT22;12832;52.392;13.066;2023-05-16T12:20:36;25.50;36.60
24730;DHT22;12832;52.392;13.066;2023-05-16T12:23:02;25.50;36.60
24730;DHT22;12832;52.392;13.066;2023-05-16T12:25:30;25.50;36.60
24730;DHT22;12832;52.392;13.066;2023-05-16T12:27:58;25.50;36.60
24730;DHT22;12832;52.392;13.066;2023-05-16T12:30:27;25.60;36.70
24730;DHT22;12832;52.392;13.066;2023-05-16T12:33:09;25.50;36.60
24730;DHT22;12832;52.392;13.066;2023-05-16T12:35:38;25.50;36.60
24730;DHT22;12832;52.392;13.066;2023-05-16T12:38:09;25.50;36.60
24730;DHT22;12832;52.392;13.066;2023-05-16T12:40:36;25.60;36.70
24730;DHT22;12832;52.392;13.066;2023-05-16T12:43:15;25.50;36.60
24730;DHT22;12832;52.392;13.066;2023-05-16T12:45:51;25.50;36.50
24730;DHT22;12832;52.392;13.066;2023-05-16T12:48:18;25.50;36.40
24730;DHT22;12832;52.392;13.066;2023-05-16T12:50:44;25.50;36.50
24730;DHT22;12832;52.392;13.066;2023-05-16T12:53:13;25.50;36.50
24730;DHT22;12832;52.392;13.066;2023-05-16T12:55:40;25.50;36.50
24730;DHT22;12832;52.392;13.066;2023-05-16T12:58:07;25.50;36.40
24730;DHT22;12832;52.392;13.066;2023-05-16T13:00:34;25.50;36.30
24730;DHT22;12832;52.392;13.066;2023-05-16T13:03:01;25.50;36.30
24730;DHT22;12832;52.392;13.066;2023-05-16T13:05:28;25.60;36.40
24730;DHT22;12832;52.392;13.066;2023-05-16T13:07:54;25.50;36.30
24730;DHT22;12832;52.392;13.066;2023-05-16T13:10:21;25.50;36.30
24730;DHT22;12832;52.392;13.066;2023-05-16T13:12:47;25.50;36.30
24730;DHT22;12832;52.392;13.066;2023-05-16T13:15:13;25.50;36.30
24730;DHT22;12832;52.392;13.066;2023-05-16T13:17:41;25.60;36.30
24730;DHT22;12832;52.392;13.066;2023-05-16T13:20:11;25.50;36.20
24730;DHT22;12832;52.392;13.066;2023-05-16T13:22:40;25.50;36.10
24730;DHT22;12832;52.392;13.066;2023-05-16T13:25:07;25.50;36.10
24730;DHT22;12832;52.392;13.066;2023-05-16T13:27:33;25.50;36.00
24730;DHT22;12832;52.392;13.066;2023-05-16T13:30:00;25.50;36.00
24730;DHT22;12832;52.392;13.066;2023-05-16T13:32:27;25.60;36.10
24730;DHT22;12832;52.392;13.066;2023-05-16T13:34:53;25.50;36.00
24730;DHT22;12832;52.392;13.066;2023-05-16T13:37:20;25.60;36.10
24730;DHT22;12832;52.392;13.066;2023-05-16T13:39:46;25.50;36.00
24730;DHT22;12832;52.392;13.066;2023-05-16T13:42:12;25.50;35.90
24730;DHT22;12832;52.392;13.066;2023-05-16T13:44:38;25.60;35.80
24730;DHT22;12832;52.392;13.066;2023-05-16T13:47:05;25.50;35.70
24730;DHT22;12832;52.392;13.066;2023-05-16T13:49:31;25.50;35.60
24730;DHT22;12832;52.392;13.066;2023-05-16T13:51:57;25.50;35.70
24730;DHT22;12832;52.392;13.066;2023-05-16T13:54:24;25.50;35.70
24730;DHT22;12832;52.392;13.066;2023-05-16T13:56:50;25.60;35.80
24730;DHT22;12832;52.392;13.066;2023-05-16T13:59:16;25.50;35.60
24730;DHT22;12832;52.392;13.066;2023-05-16T14:02:03;25.60;35.70
24730;DHT22;12832;52.392;13.066;2023-05-16T14:04:29;25.50;35.60
24730;DHT22;12832;52.392;13.066;2023-05-16T14:06:55;25.50;35.60
24730;DHT22;12832;52.392;13.066;2023-05-16T14:09:22;25.50;35.40
24730;DHT22;12832;52.392;13.066;2023-05-16T14:11:48;25.50;35.40
24730;DHT22;12832;52.392;13.066;2023-05-16T14:14:14;25.50;35.30
24730;DHT22;12832;52.392;13.066;2023-05-16T14:16:41;25.50;35.20
24730;DHT22;12832;52.392;13.066;2023-05-16T14:19:11;25.50;35.10
24730;DHT22;12832;52.392;13.066;2023-05-16T14:21:38;25.50;35.10
24730;DHT22;12832;52.392;13.066;2023-05-16T14:24:05;25.50;35.10
24730;DHT22;12832;52.392;13.066;2023-05-16T14:26:32;25.50;35.10
24730;DHT22;12832;52.392;13.066;2023-05-16T14:28:58;25.50;35.20
24730;DHT22;12832;52.392;13.066;2023-05-16T14:31:24;25.50;35.40
24730;DHT22;12832;52.392;13.066;2023-05-16T14:33:50;25.50;35.40
24730;DHT22;12832;52.392;13.066;2023-05-16T14:36:17;25.50;35.00
24730;DHT22;12832;52.392;13.066;2023-05-16T14:38:43;25.50;34.70
24730;DHT22;12832;52.392;13.066;2023-05-16T14:41:09;25.50;34.70
24730;DHT22;12832;52.392;13.066;2023-05-16T14:43:36;25.50;34.80
24730;DHT22;12832;52.392;13.066;2023-05-16T14:46:03;25.50;34.50
24730;DHT22;12832;52.392;13.066;2023-05-16T14:48:29;25.50;34.20
24730;DHT22;12832;52.392;13.066;2023-05-16T14:50:56;25.40;34.00
24730;DHT22;12832;52.392;13.066;2023-05-16T14:53:22;25.40;33.80
24730;DHT22;12832;52.392;13.066;2023-05-16T14:55:48;25.50;33.80
24730;DHT22;12832;52.392;13.066;2023-05-16T14:58:15;25.50;33.60
24730;DHT22;12832;52.392;13.066;2023-05-16T15:00:41;25.50;33.50
24730;DHT22;12832;52.392;13.066;2023-05-16T15:03:07;25.40;33.30
24730;DHT22;12832;52.392;13.066;2023-05-16T15:05:34;25.40;33.20
24730;DHT22;12832;52.392;13.066;2023-05-16T15:08:00;25.40;33.10
24730;DHT22;12832;52.392;13.066;2023-05-16T15:10:27;25.40;33.10
24730;DHT22;12832;52.392;13.066;2023-05-16T15:12:56;25.40;33.00
24730;DHT22;12832;52.392;13.066;2023-05-16T15:15:22;25.40;33.00
24730;DHT22;12832;52.392;13.066;2023-05-16T15:17:48;25.40;32.90
24730;DHT22;12832;52.392;13.066;2023-05-16T15:20:15;25.40;32.80
24730;DHT22;12832;52.392;13.066;2023-05-16T15:22:41;25.40;32.80
24730;DHT22;12832;52.392;13.066;2023-05-16T15:25:08;25.40;32.80
24730;DHT22;12832;52.392;13.066;2023-05-16T15:27:34;25.40;32.70
24730;DHT22;12832;52.392;13.066;2023-05-16T15:30:01;25.40;32.70
24730;DHT22;12832;52.392;13.066;2023-05-16T15:32:27;25.40;32.70